createdAt,value
2022-11-15T00:00:32.724Z,953.25
2022-11-15T00:01:32.739Z,953.25
2022-11-15T00:02:32.762Z,953.24
2022-11-15T00:03:33.037Z,953.24
2022-11-15T00:04:32.689Z,953.26
2022-11-15T00:05:32.663Z,953.29
2022-11-15T00:06:32.669Z,953.24
2022-11-15T00:07:54.740Z,953.25
2022-11-15T00:08:32.637Z,953.26
2022-11-15T00:09:32.607Z,953.21
2022-11-15T00:10:32.588Z,953.27
2022-11-15T00:11:32.621Z,953.23
2022-11-15T00:12:32.585Z,953.25
2022-11-15T00:13:33.002Z,953.22
2022-11-15T00:14:32.544Z,953.19
2022-11-15T00:15:32.542Z,953.21
2022-11-15T00:16:32.519Z,953.20
2022-11-15T00:17:32.530Z,953.18
2022-11-15T00:18:32.541Z,953.13
2022-11-15T00:19:32.478Z,953.13
2022-11-15T00:20:32.463Z,953.14
2022-11-15T00:21:32.487Z,953.10
2022-11-15T00:22:32.462Z,953.15
2022-11-15T00:23:32.786Z,953.12
2022-11-15T00:24:32.409Z,953.13
2022-11-15T00:25:32.391Z,953.09
2022-11-15T00:26:32.382Z,953.13
2022-11-15T00:27:32.391Z,953.13
2022-11-15T00:28:32.378Z,953.12
2022-11-15T00:29:32.342Z,953.14
2022-11-15T00:30:32.339Z,953.12
2022-11-15T00:31:32.349Z,953.16
2022-11-15T00:32:32.298Z,953.14
2022-11-15T00:33:32.748Z,953.16
2022-11-15T00:34:32.274Z,953.12
2022-11-15T00:35:32.278Z,953.12
2022-11-15T00:36:32.278Z,953.14
2022-11-15T00:37:32.261Z,953.14
2022-11-15T00:38:32.219Z,953.07
2022-11-15T00:39:32.222Z,953.13
2022-11-15T00:40:32.187Z,953.17
2022-11-15T00:41:32.180Z,953.10
2022-11-15T00:42:32.180Z,953.10
2022-11-15T00:43:32.496Z,953.11
2022-11-15T00:44:32.141Z,953.10
2022-11-15T00:45:32.127Z,953.12
2022-11-15T00:46:32.115Z,953.09
2022-11-15T00:47:32.124Z,953.10
2022-11-15T00:48:32.083Z,953.12
2022-11-15T00:49:32.083Z,953.08
2022-11-15T00:50:32.058Z,953.11
2022-11-15T00:51:32.069Z,953.07
2022-11-15T00:52:32.035Z,953.09
2022-11-15T00:53:32.349Z,953.02
2022-11-15T00:54:32.030Z,953.05
2022-11-15T00:55:32.032Z,953.02
2022-11-15T00:56:31.985Z,953.04
2022-11-15T00:57:31.962Z,953.03
2022-11-15T00:58:31.951Z,953.02
2022-11-15T00:59:31.949Z,952.96
2022-11-15T01:00:32.061Z,953.00
2022-11-15T01:01:31.911Z,953.00
2022-11-15T01:02:31.898Z,952.95
2022-11-15T01:03:32.186Z,953.00
2022-11-15T01:04:31.875Z,953.02
2022-11-15T01:05:31.883Z,952.98
2022-11-15T01:06:31.842Z,952.99
2022-11-15T01:07:31.925Z,952.91
2022-11-15T01:08:31.816Z,952.93
2022-11-15T01:09:31.799Z,952.94
2022-11-15T01:10:31.807Z,952.91
2022-11-15T01:11:31.778Z,952.95
2022-11-15T01:12:31.790Z,952.86
2022-11-15T01:13:32.126Z,952.82
2022-11-15T01:14:31.807Z,952.83
2022-11-15T01:15:31.757Z,952.87
2022-11-15T01:16:31.712Z,952.85
2022-11-15T01:17:31.703Z,952.89
2022-11-15T01:18:31.685Z,952.83
2022-11-15T01:19:31.680Z,952.81
2022-11-15T01:20:31.688Z,952.79
2022-11-15T01:21:31.647Z,952.80
2022-11-15T01:22:31.683Z,952.78
2022-11-15T01:23:32.134Z,952.78
2022-11-15T01:24:31.601Z,952.79
2022-11-15T01:25:31.598Z,952.80
2022-11-15T01:26:31.592Z,952.75
2022-11-15T01:27:31.608Z,952.73
2022-11-15T01:28:31.555Z,952.71
2022-11-15T01:29:31.553Z,952.72
2022-11-15T01:30:31.526Z,952.71
2022-11-15T01:31:31.520Z,952.66
2022-11-15T01:32:31.498Z,952.66
2022-11-15T01:33:31.794Z,952.67
2022-11-15T01:34:31.478Z,952.67
2022-11-15T01:35:31.463Z,952.64
2022-11-15T01:36:31.465Z,952.65
2022-11-15T01:37:31.439Z,952.62
2022-11-15T01:38:31.417Z,952.67
2022-11-15T01:39:31.411Z,952.62
2022-11-15T01:40:31.445Z,952.64
2022-11-15T01:41:31.406Z,952.58
2022-11-15T01:42:31.368Z,952.60
2022-11-15T01:43:31.789Z,952.55
2022-11-15T01:44:31.339Z,952.61
2022-11-15T01:45:31.329Z,952.56
2022-11-15T01:46:31.335Z,952.53
2022-11-15T01:47:31.301Z,952.57
2022-11-15T01:48:31.279Z,952.53
2022-11-15T01:49:31.274Z,952.50
2022-11-15T01:50:31.290Z,952.49
2022-11-15T01:51:31.270Z,952.53
2022-11-15T01:52:31.232Z,952.52
2022-11-15T01:53:31.633Z,952.48
2022-11-15T01:54:31.199Z,952.49
2022-11-15T01:55:31.222Z,952.47
2022-11-15T01:56:31.210Z,952.44
2022-11-15T01:57:31.164Z,952.44
2022-11-15T01:58:31.146Z,952.45
2022-11-15T01:59:31.147Z,952.35
2022-11-15T02:00:31.209Z,952.45
2022-11-15T02:01:31.173Z,952.44
2022-11-15T02:02:31.118Z,952.44
2022-11-15T02:03:31.425Z,952.45
2022-11-15T02:04:31.077Z,952.42
2022-11-15T02:05:31.085Z,952.40
2022-11-15T02:06:31.068Z,952.40
2022-11-15T02:07:31.056Z,952.40
2022-11-15T02:08:31.012Z,952.44
2022-11-15T02:09:31.007Z,952.41
2022-11-15T02:10:30.995Z,952.37
2022-11-15T02:11:31.008Z,952.34
2022-11-15T02:12:32.516Z,952.35
2022-11-15T02:13:31.251Z,952.38
2022-11-15T02:14:31.007Z,952.34
2022-11-15T02:15:30.927Z,952.32
2022-11-15T02:16:30.926Z,952.28
2022-11-15T02:17:30.908Z,952.28
2022-11-15T02:18:30.884Z,952.27
2022-11-15T02:19:30.883Z,952.29
2022-11-15T02:20:30.880Z,952.29
2022-11-15T02:21:30.872Z,952.27
2022-11-15T02:22:30.842Z,952.30
2022-11-15T02:23:31.149Z,952.28
2022-11-15T02:24:30.798Z,952.25
2022-11-15T02:25:30.796Z,952.22
2022-11-15T02:26:30.802Z,952.21
2022-11-15T02:27:30.770Z,952.23
2022-11-15T02:28:30.754Z,952.20
2022-11-15T02:29:30.772Z,952.17
2022-11-15T02:30:30.746Z,952.19
2022-11-15T02:31:30.736Z,952.17
2022-11-15T02:32:30.718Z,952.13
2022-11-15T02:33:30.969Z,952.14
2022-11-15T02:34:30.699Z,952.16
2022-11-15T02:35:30.663Z,952.14
2022-11-15T02:36:30.643Z,952.08
2022-11-15T02:37:30.664Z,952.10
2022-11-15T02:38:30.616Z,952.09
2022-11-15T02:39:30.611Z,952.08
2022-11-15T02:40:30.601Z,952.06
2022-11-15T02:41:30.580Z,952.03
2022-11-15T02:42:30.610Z,952.01
2022-11-15T02:43:30.952Z,951.98
2022-11-15T02:44:30.541Z,951.96
2022-11-15T02:45:30.525Z,951.95
2022-11-15T02:46:30.511Z,951.97
2022-11-15T02:47:30.506Z,951.96
2022-11-15T02:48:30.516Z,951.98
2022-11-15T02:49:30.483Z,951.96
2022-11-15T02:50:30.475Z,951.98
2022-11-15T02:51:30.443Z,951.99
2022-11-15T02:52:30.432Z,951.95
2022-11-15T02:53:30.722Z,951.99
2022-11-15T02:54:30.449Z,952.00
2022-11-15T02:55:30.436Z,951.95
2022-11-15T02:56:30.378Z,951.92
2022-11-15T02:57:30.365Z,951.94
2022-11-15T02:58:30.355Z,951.95
2022-11-15T02:59:30.341Z,951.92
2022-11-15T03:00:30.484Z,951.90
2022-11-15T03:01:30.329Z,951.89
2022-11-15T03:02:30.310Z,951.91
2022-11-15T03:03:30.775Z,951.83
2022-11-15T03:04:30.307Z,951.87
2022-11-15T03:05:30.257Z,951.87
2022-11-15T03:06:30.244Z,951.82
2022-11-15T03:07:30.259Z,951.84
2022-11-15T03:08:30.231Z,951.84
2022-11-15T03:09:30.230Z,951.87
2022-11-15T03:10:30.221Z,951.86
2022-11-15T03:11:30.196Z,951.89
2022-11-15T03:12:30.222Z,951.85
2022-11-15T03:13:30.538Z,951.85
2022-11-15T03:14:30.164Z,951.88
2022-11-15T03:15:30.123Z,951.82
2022-11-15T03:16:30.115Z,951.88
2022-11-15T03:17:30.099Z,951.81
2022-11-15T03:18:30.089Z,951.83
2022-11-15T03:19:30.102Z,951.79
2022-11-15T03:20:30.069Z,951.81
2022-11-15T03:21:30.045Z,951.79
2022-11-15T03:22:30.073Z,951.81
2022-11-15T03:23:30.340Z,951.75
2022-11-15T03:24:30.013Z,951.75
2022-11-15T03:25:29.998Z,951.67
2022-11-15T03:26:29.993Z,951.68
2022-11-15T03:27:29.964Z,951.69
2022-11-15T03:28:29.974Z,951.70
2022-11-15T03:29:29.936Z,951.66
2022-11-15T03:30:29.941Z,951.67
2022-11-15T03:31:29.915Z,951.60
2022-11-15T03:32:29.936Z,951.64
2022-11-15T03:33:30.188Z,951.63
2022-11-15T03:34:29.875Z,951.62
2022-11-15T03:35:29.859Z,951.61
2022-11-15T03:36:29.876Z,951.60
2022-11-15T03:37:29.845Z,951.61
2022-11-15T03:38:29.973Z,951.63
2022-11-15T03:39:29.832Z,951.60
2022-11-15T03:40:29.801Z,951.56
2022-11-15T03:41:29.782Z,951.62
2022-11-15T03:42:29.776Z,951.62
2022-11-15T03:43:30.088Z,951.56
2022-11-15T03:44:29.775Z,951.56
2022-11-15T03:45:29.730Z,951.54
2022-11-15T03:46:29.747Z,951.54
2022-11-15T03:47:29.705Z,951.49
2022-11-15T03:48:29.695Z,951.52
2022-11-15T03:49:29.677Z,951.45
2022-11-15T03:50:29.677Z,951.44
2022-11-15T03:51:29.677Z,951.48
2022-11-15T03:52:29.637Z,951.47
2022-11-15T03:53:29.990Z,951.45
2022-11-15T03:54:29.617Z,951.48
2022-11-15T03:55:29.654Z,951.47
2022-11-15T03:56:29.591Z,951.42
2022-11-15T03:57:29.570Z,951.43
2022-11-15T03:58:29.563Z,951.45
2022-11-15T03:59:29.570Z,951.44
2022-11-15T04:00:29.534Z,951.42
2022-11-15T04:01:29.531Z,951.43
2022-11-15T04:02:29.510Z,951.36
2022-11-15T04:03:29.791Z,951.36
2022-11-15T04:04:29.509Z,951.38
2022-11-15T04:05:29.462Z,951.39
2022-11-15T04:06:29.490Z,951.35
2022-11-15T04:07:29.459Z,951.35
2022-11-15T04:08:29.430Z,951.25
2022-11-15T04:09:29.409Z,951.33
2022-11-15T04:10:29.406Z,951.33
2022-11-15T04:11:29.420Z,951.27
2022-11-15T04:12:29.379Z,951.25
2022-11-15T04:13:29.789Z,951.24
2022-11-15T04:14:29.347Z,951.24
2022-11-15T04:15:29.336Z,951.28
2022-11-15T04:16:29.318Z,951.26
2022-11-15T04:17:29.305Z,951.27
2022-11-15T04:18:29.319Z,951.20
2022-11-15T04:19:29.280Z,951.28
2022-11-15T04:20:29.266Z,951.26
2022-11-15T04:21:29.256Z,951.22
2022-11-15T04:22:29.272Z,951.23
2022-11-15T04:23:29.576Z,951.25
2022-11-15T04:24:29.212Z,951.23
2022-11-15T04:25:32.249Z,951.19
2022-11-15T04:26:29.194Z,951.17
2022-11-15T04:27:29.199Z,951.16
2022-11-15T04:28:29.200Z,951.19
2022-11-15T04:29:29.190Z,951.14
2022-11-15T04:30:29.142Z,951.17
2022-11-15T04:31:29.123Z,951.13
2022-11-15T04:32:29.122Z,951.18
2022-11-15T04:33:29.457Z,951.15
2022-11-15T04:34:29.086Z,951.12
2022-11-15T04:35:29.114Z,951.15
2022-11-15T04:36:29.058Z,951.13
2022-11-15T04:37:29.050Z,951.14
2022-11-15T04:38:29.028Z,951.11
2022-11-15T04:39:29.023Z,951.11
2022-11-15T04:40:29.031Z,951.07
2022-11-15T04:41:28.987Z,951.10
2022-11-15T04:42:28.981Z,951.09
2022-11-15T04:43:29.226Z,951.11
2022-11-15T04:44:28.950Z,951.07
2022-11-15T04:45:28.947Z,951.09
2022-11-15T04:46:28.945Z,951.06
2022-11-15T04:47:28.934Z,951.07
2022-11-15T04:48:28.895Z,951.10
2022-11-15T04:49:28.902Z,951.05
2022-11-15T04:50:28.865Z,951.04
2022-11-15T04:51:28.947Z,951.00
2022-11-15T04:52:28.850Z,951.06
2022-11-15T04:53:28.974Z,951.02
2022-11-15T04:54:28.821Z,950.97
2022-11-15T04:55:28.835Z,950.98
2022-11-15T04:56:28.798Z,951.01
2022-11-15T04:57:28.777Z,950.95
2022-11-15T04:58:28.761Z,950.98
2022-11-15T04:59:28.741Z,950.99
2022-11-15T05:00:28.762Z,950.96
2022-11-15T05:01:28.758Z,950.94
2022-11-15T05:02:28.711Z,950.94
2022-11-15T05:03:28.872Z,950.96
2022-11-15T05:04:28.708Z,950.92
2022-11-15T05:05:28.673Z,950.88
2022-11-15T05:06:28.656Z,950.87
2022-11-15T05:07:28.745Z,950.85
2022-11-15T05:08:28.632Z,950.82
2022-11-15T05:09:28.632Z,950.84
2022-11-15T05:10:28.607Z,950.83
2022-11-15T05:11:28.591Z,950.82
2022-11-15T05:12:28.591Z,950.86
2022-11-15T05:13:28.748Z,950.86
2022-11-15T05:14:28.552Z,950.82
2022-11-15T05:15:28.536Z,950.83
2022-11-15T05:16:28.554Z,950.84
2022-11-15T05:17:28.516Z,950.81
2022-11-15T05:18:28.505Z,950.84
2022-11-15T05:19:28.494Z,950.80
2022-11-15T05:20:28.475Z,950.82
2022-11-15T05:21:28.484Z,950.81
2022-11-15T05:22:28.481Z,950.75
2022-11-15T05:23:28.551Z,950.77
2022-11-15T05:24:28.425Z,950.77
2022-11-15T05:25:28.408Z,950.79
2022-11-15T05:26:28.416Z,950.74
2022-11-15T05:27:28.403Z,950.71
2022-11-15T05:28:28.371Z,950.74
2022-11-15T05:29:28.372Z,950.73
2022-11-15T05:30:28.344Z,950.71
2022-11-15T05:31:28.351Z,950.71
2022-11-15T05:32:28.313Z,950.71
2022-11-15T05:33:28.385Z,950.74
2022-11-15T05:34:28.287Z,950.74
2022-11-15T05:35:28.279Z,950.70
2022-11-15T05:36:28.295Z,950.70
2022-11-15T05:37:28.278Z,950.70
2022-11-15T05:38:28.231Z,950.73
2022-11-15T05:39:28.216Z,950.68
2022-11-15T05:40:28.208Z,950.68
2022-11-15T05:41:28.192Z,950.70
2022-11-15T05:42:28.207Z,950.70
2022-11-15T05:43:28.309Z,950.62
2022-11-15T05:44:28.154Z,950.65
2022-11-15T05:45:28.142Z,950.59
2022-11-15T05:46:28.134Z,950.61
2022-11-15T05:47:28.130Z,950.60
2022-11-15T05:48:28.108Z,950.61
2022-11-15T05:49:28.130Z,950.62
2022-11-15T05:50:28.076Z,950.62
2022-11-15T05:51:28.062Z,950.63
2022-11-15T05:52:28.077Z,950.62
2022-11-15T05:53:28.059Z,950.62
2022-11-15T05:54:28.014Z,950.68
2022-11-15T05:55:27.999Z,950.64
2022-11-15T05:56:27.991Z,950.65
2022-11-15T05:57:28.005Z,950.66
2022-11-15T05:58:27.978Z,950.64
2022-11-15T05:59:27.950Z,950.65
2022-11-15T06:00:27.943Z,950.65
2022-11-15T06:01:27.944Z,950.63
2022-11-15T06:02:27.981Z,950.64
2022-11-15T06:03:27.926Z,950.63
2022-11-15T06:04:27.917Z,950.58
2022-11-15T06:05:27.871Z,950.62
2022-11-15T06:06:27.886Z,950.60
2022-11-15T06:07:27.920Z,950.62
2022-11-15T06:08:27.870Z,950.63
2022-11-15T06:09:27.817Z,950.53
2022-11-15T06:10:27.810Z,950.57
2022-11-15T06:11:27.787Z,950.58
2022-11-15T06:12:27.813Z,950.58
2022-11-15T06:13:27.831Z,950.60
2022-11-15T06:14:27.754Z,950.51
2022-11-15T06:15:27.742Z,950.62
2022-11-15T06:16:27.730Z,950.53
2022-11-15T06:17:27.744Z,950.57
2022-11-15T06:18:27.704Z,950.53
2022-11-15T06:19:27.707Z,950.54
2022-11-15T06:20:27.672Z,950.51
2022-11-15T06:21:27.686Z,950.48
2022-11-15T06:22:27.643Z,950.55
2022-11-15T06:23:27.673Z,950.52
2022-11-15T06:24:27.627Z,950.49
2022-11-15T06:25:27.632Z,950.55
2022-11-15T06:26:27.598Z,950.53
2022-11-15T06:27:27.599Z,950.53
2022-11-15T06:28:27.591Z,950.56
2022-11-15T06:29:27.549Z,950.57
2022-11-15T06:30:27.551Z,950.57
2022-11-15T06:31:27.554Z,950.56
2022-11-15T06:32:27.524Z,950.61
2022-11-15T06:33:27.500Z,950.60
2022-11-15T06:34:27.510Z,950.67
2022-11-15T06:35:27.480Z,950.53
2022-11-15T06:36:27.456Z,950.62
2022-11-15T06:37:27.492Z,950.57
2022-11-15T06:38:27.434Z,950.56
2022-11-15T06:39:27.459Z,950.64
2022-11-15T06:40:27.406Z,950.61
2022-11-15T06:41:27.395Z,950.57
2022-11-15T06:42:27.381Z,950.54
2022-11-15T06:43:27.363Z,950.56
2022-11-15T06:44:27.355Z,950.56
2022-11-15T06:45:27.364Z,950.61
2022-11-15T06:46:27.333Z,950.56
2022-11-15T06:47:27.315Z,950.53
2022-11-15T06:48:27.308Z,950.59
2022-11-15T06:49:27.289Z,950.58
2022-11-15T06:50:27.318Z,950.50
2022-11-15T06:51:27.263Z,950.52
2022-11-15T06:52:27.253Z,950.60
2022-11-15T06:53:27.265Z,950.53
2022-11-15T06:54:27.260Z,950.54
2022-11-15T06:55:27.258Z,950.53
2022-11-15T06:56:27.214Z,950.51
2022-11-15T06:57:27.182Z,950.42
2022-11-15T06:58:27.162Z,950.49
2022-11-15T06:59:27.153Z,950.44
2022-11-15T07:00:27.155Z,950.40
2022-11-15T07:01:27.243Z,950.39
2022-11-15T07:02:27.120Z,950.45
2022-11-15T07:03:27.091Z,950.45
2022-11-15T07:04:27.114Z,950.48
2022-11-15T07:05:27.082Z,950.46
2022-11-15T07:06:27.086Z,950.39
2022-11-15T07:07:27.227Z,950.35
2022-11-15T07:08:27.038Z,950.38
2022-11-15T07:09:27.028Z,950.44
2022-11-15T07:10:27.019Z,950.40
2022-11-15T07:11:27.031Z,950.37
2022-11-15T07:12:27.056Z,950.43
2022-11-15T07:13:26.972Z,950.47
2022-11-15T07:14:26.963Z,950.42
2022-11-15T07:15:26.974Z,950.38
2022-11-15T07:16:26.931Z,950.44
2022-11-15T07:17:26.916Z,950.40
2022-11-15T07:18:26.905Z,950.40
2022-11-15T07:19:26.907Z,950.34
2022-11-15T07:20:26.871Z,950.41
2022-11-15T07:21:27.806Z,950.41
2022-11-15T07:22:26.882Z,950.42
2022-11-15T07:23:26.837Z,950.39
2022-11-15T07:24:26.822Z,950.36
2022-11-15T07:25:26.875Z,950.31
2022-11-15T07:26:26.798Z,950.28
2022-11-15T07:27:26.801Z,950.28
2022-11-15T07:28:26.771Z,950.28
2022-11-15T07:29:26.767Z,950.25
2022-11-15T07:30:26.740Z,950.26
2022-11-15T07:31:26.733Z,950.26
2022-11-15T07:32:26.755Z,950.24
2022-11-15T07:33:26.711Z,950.24
2022-11-15T07:34:26.685Z,950.25
2022-11-15T07:35:26.687Z,950.25
2022-11-15T07:36:26.675Z,950.27
2022-11-15T07:37:26.676Z,950.26
2022-11-15T07:38:26.630Z,950.22
2022-11-15T07:39:26.643Z,950.28
2022-11-15T07:40:26.642Z,950.28
2022-11-15T07:41:26.748Z,950.27
2022-11-15T07:42:26.595Z,950.27
2022-11-15T07:43:26.600Z,950.27
2022-11-15T07:44:26.554Z,950.26
2022-11-15T07:45:26.555Z,950.24
2022-11-15T07:46:26.563Z,950.21
2022-11-15T07:47:26.521Z,950.19
2022-11-15T07:48:35.703Z,950.25
2022-11-15T07:49:26.508Z,950.25
2022-11-15T07:50:26.476Z,950.20
2022-11-15T07:51:26.484Z,950.17
2022-11-15T07:52:26.448Z,950.21
2022-11-15T07:53:26.487Z,950.14
2022-11-15T07:54:26.477Z,950.19
2022-11-15T07:55:26.413Z,950.19
2022-11-15T07:56:26.392Z,950.14
2022-11-15T07:57:26.382Z,950.16
2022-11-15T07:58:26.391Z,950.12
2022-11-15T07:59:26.359Z,950.14
2022-11-15T08:00:26.439Z,950.14
2022-11-15T08:01:26.433Z,950.14
2022-11-15T08:02:30.268Z,950.13
2022-11-15T08:03:26.339Z,950.11
2022-11-15T08:04:26.290Z,950.10
2022-11-15T08:05:26.296Z,950.06
2022-11-15T08:06:26.269Z,950.12
2022-11-15T08:07:26.363Z,950.02
2022-11-15T08:08:26.244Z,950.02
2022-11-15T08:09:26.220Z,950.05
2022-11-15T08:10:26.324Z,950.04
2022-11-15T08:11:26.202Z,950.04
2022-11-15T08:12:26.215Z,950.03
2022-11-15T08:13:26.225Z,950.01
2022-11-15T08:14:26.183Z,949.93
2022-11-15T08:15:26.146Z,949.93
2022-11-15T08:16:26.123Z,949.96
2022-11-15T08:17:26.121Z,949.95
2022-11-15T08:18:26.143Z,949.97
2022-11-15T08:19:26.090Z,949.98
2022-11-15T08:20:26.109Z,949.91
2022-11-15T08:21:26.061Z,949.88
2022-11-15T08:22:26.044Z,949.95
2022-11-15T08:23:26.058Z,949.89
2022-11-15T08:24:26.052Z,949.90
2022-11-15T08:25:26.050Z,949.82
2022-11-15T08:26:26.020Z,949.82
2022-11-15T08:27:26.014Z,949.81
2022-11-15T08:28:25.970Z,949.79
2022-11-15T08:29:25.953Z,949.80
2022-11-15T08:30:26.022Z,949.80
2022-11-15T08:31:25.919Z,949.75
2022-11-15T08:32:25.941Z,949.71
2022-11-15T08:33:25.930Z,949.69
2022-11-15T08:34:25.878Z,949.71
2022-11-15T08:35:29.028Z,949.67
2022-11-15T08:36:25.853Z,949.65
2022-11-15T08:37:25.841Z,949.67
2022-11-15T08:38:25.862Z,949.59
2022-11-15T08:39:25.810Z,949.58
2022-11-15T08:40:25.855Z,949.53
2022-11-15T08:41:25.817Z,949.55
2022-11-15T08:42:25.775Z,949.52
2022-11-15T08:43:25.790Z,949.52
2022-11-15T08:44:25.749Z,949.48
2022-11-15T08:45:25.744Z,949.50
2022-11-15T08:46:25.709Z,949.52
2022-11-15T08:47:25.743Z,949.54
2022-11-15T08:48:25.712Z,949.52
2022-11-15T08:49:25.685Z,949.54
2022-11-15T08:50:25.670Z,949.53
2022-11-15T08:51:25.652Z,949.52
2022-11-15T08:52:25.636Z,949.50
2022-11-15T08:53:25.667Z,949.47
2022-11-15T08:54:25.608Z,949.42
2022-11-15T08:55:25.601Z,949.45
2022-11-15T08:56:25.606Z,949.44
2022-11-15T08:57:25.579Z,949.40
2022-11-15T08:58:25.546Z,949.40
2022-11-15T08:59:25.550Z,949.31
2022-11-15T09:00:25.532Z,949.32
2022-11-15T09:01:25.564Z,949.30
2022-11-15T09:02:25.537Z,949.30
2022-11-15T09:03:25.488Z,949.34
2022-11-15T09:04:25.495Z,949.31
2022-11-15T09:05:25.460Z,949.32
2022-11-15T09:06:25.546Z,949.33
2022-11-15T09:07:25.519Z,949.24
2022-11-15T09:08:56.856Z,949.23
2022-11-15T09:09:25.409Z,949.22
2022-11-15T09:10:25.395Z,949.23
2022-11-15T09:11:25.403Z,949.23
2022-11-15T09:12:25.393Z,949.18
2022-11-15T09:13:25.362Z,949.22
2022-11-15T09:14:25.334Z,949.26
2022-11-15T09:15:25.319Z,949.14
2022-11-15T09:16:25.314Z,949.08
2022-11-15T09:17:25.430Z,949.11
2022-11-15T09:18:25.293Z,949.08
2022-11-15T09:19:25.277Z,949.03
2022-11-15T09:20:25.248Z,949.02
2022-11-15T09:21:25.269Z,948.99
2022-11-15T09:22:25.222Z,948.97
2022-11-15T09:23:25.240Z,948.98
2022-11-15T09:24:25.202Z,948.94
2022-11-15T09:25:25.199Z,948.97
2022-11-15T09:26:25.238Z,948.94
2022-11-15T09:27:25.155Z,948.91
2022-11-15T09:28:25.180Z,948.93
2022-11-15T09:29:25.134Z,948.90
2022-11-15T09:30:25.118Z,948.88
2022-11-15T09:31:25.112Z,948.93
2022-11-15T09:32:25.084Z,948.86
2022-11-15T09:33:25.110Z,948.87
2022-11-15T09:34:25.057Z,948.84
2022-11-15T09:35:25.049Z,948.80
2022-11-15T09:36:25.040Z,948.79
2022-11-15T09:37:25.023Z,948.75
2022-11-15T09:38:25.011Z,948.72
2022-11-15T09:39:25.030Z,948.73
2022-11-15T09:40:24.973Z,948.68
2022-11-15T09:41:25.002Z,948.69
2022-11-15T09:42:24.951Z,948.67
2022-11-15T09:43:24.983Z,948.61
2022-11-15T09:44:25.931Z,948.61
2022-11-15T09:45:24.906Z,948.61
2022-11-15T09:46:24.932Z,948.56
2022-11-15T09:47:24.887Z,948.60
2022-11-15T09:48:24.874Z,948.52
2022-11-15T09:49:24.861Z,948.55
2022-11-15T09:50:24.865Z,948.55
2022-11-15T09:51:24.838Z,948.54
2022-11-15T09:52:24.808Z,948.54
2022-11-15T09:53:50.828Z,948.52
2022-11-15T09:54:51.578Z,948.48
2022-11-15T09:55:24.810Z,948.47
2022-11-15T09:56:24.778Z,948.41
2022-11-15T09:57:24.744Z,948.42
2022-11-15T09:58:24.762Z,948.40
2022-11-15T09:59:24.718Z,948.35
2022-11-15T10:00:45.954Z,948.34
2022-11-15T10:01:24.738Z,948.33
2022-11-15T10:02:24.676Z,948.29
2022-11-15T10:03:24.680Z,948.21
2022-11-15T10:04:24.688Z,948.26
2022-11-15T10:05:24.658Z,948.19
2022-11-15T10:06:24.624Z,948.18
2022-11-15T10:07:24.680Z,948.18
2022-11-15T10:08:24.599Z,948.19
2022-11-15T10:09:24.598Z,948.17
2022-11-15T10:10:24.596Z,948.15
2022-11-15T10:11:40.185Z,948.11
2022-11-15T10:12:24.554Z,948.13
2022-11-15T10:13:24.536Z,948.12
2022-11-15T10:14:24.521Z,948.13
2022-11-15T10:15:24.546Z,948.11
2022-11-15T10:16:24.557Z,948.07
2022-11-15T10:17:24.513Z,948.03
2022-11-15T10:18:24.467Z,948.03
2022-11-15T10:19:24.451Z,948.01
2022-11-15T10:20:24.434Z,948.01
2022-11-15T10:21:24.453Z,948.05
2022-11-15T10:22:24.410Z,948.02
2022-11-15T10:23:24.408Z,947.96
2022-11-15T10:24:24.377Z,947.97
2022-11-15T10:25:24.408Z,947.97
2022-11-15T10:26:24.356Z,947.92
2022-11-15T10:27:24.382Z,947.94
2022-11-15T10:28:24.388Z,947.91
2022-11-15T10:29:27.050Z,947.92
2022-11-15T10:30:24.299Z,947.84
2022-11-15T10:31:24.358Z,947.81
2022-11-15T10:32:24.291Z,947.77
2022-11-15T10:33:24.290Z,947.79
2022-11-15T10:34:24.243Z,947.80
2022-11-15T10:35:24.243Z,947.72
2022-11-15T10:36:24.219Z,947.72
2022-11-15T10:37:24.241Z,947.68
2022-11-15T10:38:24.190Z,947.64
2022-11-15T10:39:24.177Z,947.63
2022-11-15T10:40:24.170Z,947.63
2022-11-15T10:41:24.185Z,947.60
2022-11-15T10:42:24.131Z,947.58
2022-11-15T10:43:24.128Z,947.55
2022-11-15T10:44:24.133Z,947.52
2022-11-15T10:45:24.098Z,947.50
2022-11-15T10:46:45.586Z,947.46
2022-11-15T10:47:24.101Z,947.45
2022-11-15T10:48:24.057Z,947.48
2022-11-15T10:49:24.062Z,947.47
2022-11-15T10:50:24.033Z,947.46
2022-11-15T10:51:24.025Z,947.46
2022-11-15T10:52:23.996Z,947.44
2022-11-15T10:53:24.011Z,947.43
2022-11-15T10:54:24.021Z,947.45
2022-11-15T10:55:23.959Z,947.42
2022-11-15T10:56:23.970Z,947.43
2022-11-15T10:57:23.939Z,947.40
2022-11-15T10:58:23.954Z,947.39
2022-11-15T10:59:23.983Z,947.37
2022-11-15T11:00:23.926Z,947.35
2022-11-15T11:01:23.953Z,947.35
2022-11-15T11:02:23.872Z,947.32
2022-11-15T11:03:23.867Z,947.29
2022-11-15T11:04:23.858Z,947.25
2022-11-15T11:05:23.834Z,947.22
2022-11-15T11:06:23.812Z,947.21
2022-11-15T11:07:23.870Z,947.18
2022-11-15T11:08:23.790Z,947.16
2022-11-15T11:09:23.802Z,947.11
2022-11-15T11:10:49.723Z,947.12
2022-11-15T11:11:23.878Z,947.08
2022-11-15T11:12:23.728Z,947.06
2022-11-15T11:13:23.718Z,947.07
2022-11-15T11:14:23.700Z,946.96
2022-11-15T11:15:23.721Z,946.98
2022-11-15T11:16:23.677Z,946.94
2022-11-15T11:17:23.664Z,946.97
2022-11-15T11:18:23.697Z,947.00
2022-11-15T11:19:23.637Z,946.93
2022-11-15T11:20:23.624Z,946.91
2022-11-15T11:21:30.325Z,946.90
2022-11-15T11:22:23.607Z,946.88
2022-11-15T11:23:23.611Z,946.88
2022-11-15T11:24:23.576Z,946.87
2022-11-15T11:25:23.587Z,946.83
2022-11-15T11:26:23.538Z,946.83
2022-11-15T11:27:23.518Z,946.81
2022-11-15T11:28:23.538Z,946.80
2022-11-15T11:29:23.501Z,946.76
2022-11-15T11:30:23.498Z,946.78
2022-11-15T11:31:23.528Z,946.77
2022-11-15T11:32:23.461Z,946.72
2022-11-15T11:33:23.444Z,946.72
2022-11-15T11:34:23.438Z,946.67
2022-11-15T11:35:23.447Z,946.68
2022-11-15T11:36:23.411Z,946.69
2022-11-15T11:37:23.411Z,946.65
2022-11-15T11:38:23.372Z,946.66
2022-11-15T11:39:23.365Z,946.65
2022-11-15T11:40:23.361Z,946.63
2022-11-15T11:41:23.371Z,946.62
2022-11-15T11:42:23.331Z,946.61
2022-11-15T11:43:23.327Z,946.54
2022-11-15T11:44:23.298Z,946.55
2022-11-15T11:45:23.320Z,946.54
2022-11-15T11:46:23.305Z,946.52
2022-11-15T11:47:23.263Z,946.47
2022-11-15T11:48:23.252Z,946.48
2022-11-15T11:49:23.235Z,946.45
2022-11-15T11:50:23.259Z,946.44
2022-11-15T11:51:23.203Z,946.38
2022-11-15T11:52:23.204Z,946.34
2022-11-15T11:53:23.193Z,946.33
2022-11-15T11:54:23.185Z,946.28
2022-11-15T11:55:23.160Z,946.27
2022-11-15T11:56:23.145Z,946.29
2022-11-15T11:57:23.167Z,946.27
2022-11-15T11:58:23.125Z,946.27
2022-11-15T11:59:23.100Z,946.23
2022-11-15T12:00:23.130Z,946.20
2022-11-15T12:01:23.079Z,946.14
2022-11-15T12:02:23.218Z,946.14
2022-11-15T12:03:23.062Z,946.13
2022-11-15T12:04:23.041Z,946.11
2022-11-15T12:05:23.028Z,946.07
2022-11-15T12:06:23.016Z,946.06
2022-11-15T12:07:23.099Z,946.06
2022-11-15T12:08:22.985Z,946.04
2022-11-15T12:09:22.976Z,946.01
2022-11-15T12:10:22.991Z,945.98
2022-11-15T12:11:22.969Z,945.98
2022-11-15T12:12:22.929Z,945.98
2022-11-15T12:13:22.951Z,945.95
2022-11-15T12:14:22.901Z,945.92
2022-11-15T12:15:22.902Z,945.91
2022-11-15T12:16:22.895Z,945.93
2022-11-15T12:17:22.903Z,945.93
2022-11-15T12:18:22.892Z,945.91
2022-11-15T12:19:22.897Z,945.91
2022-11-15T12:20:22.829Z,945.91
2022-11-15T12:21:28.089Z,945.90
2022-11-15T12:22:22.802Z,945.89
2022-11-15T12:23:22.807Z,945.86
2022-11-15T12:24:22.816Z,945.88
2022-11-15T12:25:22.762Z,945.85
2022-11-15T12:26:22.770Z,945.84
2022-11-15T12:27:26.531Z,945.83
2022-11-15T12:28:22.724Z,945.82